Time;durP1;ratioP1;P1;durP2;ratioP2;P2;SDS_P1;SDS_P2;PMS_P1;PMS_P2;Temp;Humidity;BMP_temperature;BMP_pressure;BME280_temperature;BME280_humidity;BME280_pressure;Samples;Min_cycle;Max_cycle;Signal;HPM_P1;HPM_P2
2023/09/24 08:44:17;;;;;;;5.35;3.80;;;24.30;58.70;;;;;;5065848;28;20045;-79
2023/09/24 08:46:48;;;;;;;3.90;3.33;;;24.20;58.50;;;;;;5080767;28;20024;-78
2023/09/24 08:49:14;;;;;;;4.38;3.35;;;24.30;58.40;;;;;;5081027;28;20062;-81
2023/09/24 08:51:40;;;;;;;7.25;3.58;;;24.30;58.20;;;;;;5083236;28;20366;-79
2023/09/24 08:54:06;;;;;;;5.35;3.47;;;24.30;58.00;;;;;;5063058;28;20031;-76
2023/09/24 08:56:32;;;;;;;4.70;3.38;;;24.30;57.90;;;;;;5081569;28;20044;-74
2023/09/24 08:58:58;;;;;;;4.50;3.03;;;24.40;57.80;;;;;;5079899;28;20063;-76
2023/09/24 09:01:24;;;;;;;4.80;3.47;;;24.40;57.70;;;;;;5082972;28;20036;-76
2023/09/24 09:03:50;;;;;;;4.75;3.03;;;24.40;57.60;;;;;;5084921;28;20021;-77
2023/09/24 09:06:35;;;;;;;4.75;3.20;;;24.40;57.30;;;;;;5085349;28;20036;-80
2023/09/24 09:09:01;;;;;;;4.65;2.90;;;24.40;57.10;;;;;;5063951;28;20478;-76
2023/09/24 09:11:46;;;;;;;4.22;2.95;;;24.40;57.10;;;;;;5085705;28;20020;-76
2023/09/24 09:14:12;;;;;;;5.40;3.03;;;24.40;56.80;;;;;;5084923;28;20020;-76
2023/09/24 09:16:57;;;;;;;5.60;2.97;;;24.40;56.80;;;;;;5084243;28;20031;-78
2023/09/24 09:19:24;;;;;;;3.50;2.63;;;24.40;56.50;;;;;;5066755;28;20059;-73
2023/09/24 09:21:49;;;;;;;7.57;2.90;;;24.40;56.60;;;;;;5085078;28;20039;-74
2023/09/24 09:24:25;;;;;;;3.22;2.75;;;24.40;56.60;;;;;;5084452;28;20386;-78
2023/09/24 09:26:55;;;;;;;4.55;2.80;;;24.40;56.30;;;;;;5083024;28;20024;-82
2023/09/24 09:29:23;;;;;;;3.03;2.42;;;24.40;56.30;;;;;;5083459;28;20087;-77
2023/09/24 09:31:49;;;;;;;6.00;2.90;;;24.40;56.20;;;;;;5085282;28;20024;-83
2023/09/24 09:34:15;;;;;;;3.92;2.83;;;24.40;56.10;;;;;;5065365;28;20032;-87
2023/09/24 09:36:41;;;;;;;4.68;2.90;;;24.40;56.00;;;;;;5082726;28;20073;-78
2023/09/24 09:39:06;;;;;;;3.35;2.50;;;24.40;56.00;;;;;;5081837;28;20441;-79
2023/09/24 09:41:33;;;;;;;4.90;2.92;;;24.40;55.80;;;;;;5086251;28;20043;-83
2023/09/24 09:44:05;;;;;;;5.72;3.03;;;24.50;55.90;;;;;;5086263;28;20041;-76
2023/09/24 09:46:34;;;;;;;5.45;2.75;;;24.50;55.80;;;;;;5081775;28;20040;-78
2023/09/24 09:49:10;;;;;;;10.10;3.05;;;24.50;55.60;;;;;;5084194;28;20020;-73
2023/09/24 09:51:47;;;;;;;5.65;3.33;;;24.50;56.00;;;;;;5068970;28;20055;-73
2023/09/24 09:54:14;;;;;;;7.75;3.50;;;24.60;56.40;;;;;;5062954;28;20059;-72
2023/09/24 09:56:41;;;;;;;6.70;3.60;;;24.60;56.60;;;;;;5077353;28;20428;-75
2023/09/24 09:59:07;;;;;;;6.43;3.42;;;24.70;56.70;;;;;;5075101;28;20352;-73
2023/09/24 10:01:33;;;;;;;4.97;3.17;;;24.80;56.90;;;;;;5074330;28;20052;-74
2023/09/24 10:04:05;;;;;;;6.45;3.30;;;24.80;57.00;;;;;;5067156;28;20108;-73
2023/09/24 10:06:35;;;;;;;4.35;2.90;;;24.90;57.00;;;;;;5075482;28;20103;-73
2023/09/24 10:09:01;;;;;;;4.35;2.95;;;25.00;57.10;;;;;;5072858;28;20025;-75
2023/09/24 10:11:33;;;;;;;6.50;2.95;;;25.00;57.20;;;;;;5084556;28;20033;-75
2023/09/24 10:14:05;;;;;;;4.78;2.75;;;25.10;56.90;;;;;;5080915;28;20027;-77
2023/09/24 10:16:40;;;;;;;4.60;2.75;;;25.10;56.50;;;;;;5083677;28;20032;-79
2023/09/24 10:19:11;;;;;;;4.50;2.70;;;25.10;56.20;;;;;;5065204;28;20024;-78
2023/09/24 10:21:44;;;;;;;8.43;2.53;;;25.10;55.90;;;;;;5080273;28;20033;-81
2023/09/24 10:24:10;;;;;;;6.33;2.80;;;25.10;55.60;;;;;;5067307;28;20028;-78
2023/09/24 10:26:54;;;;;;;4.40;2.38;;;25.10;55.60;;;;;;5080553;28;20386;-78
2023/09/24 10:29:50;;;;;;;3.83;2.25;;;25.10;54.80;;;;;;5081820;28;20043;-79
2023/09/24 10:32:17;;;;;;;3.67;2.50;;;25.10;54.50;;;;;;5084931;28;20031;-77
2023/09/24 10:34:54;;;;;;;2.35;2.00;;;25.00;55.00;;;;;;5082823;28;20043;-81
2023/09/24 10:37:21;;;;;;;3.00;2.00;;;25.00;54.60;;;;;;5086802;28;20028;-80
2023/09/24 10:39:59;;;;;;;2.13;1.92;;;25.00;54.60;;;;;;5080488;28;20067;-79
2023/09/24 10:42:26;;;;;;;3.42;2.10;;;25.00;54.10;;;;;;5079390;28;20043;-82
2023/09/24 10:45:07;;;;;;;2.78;2.00;;;25.00;54.20;;;;;;5083364;28;20059;-77
2023/09/24 10:47:37;;;;;;;2.25;2.00;;;25.00;53.60;;;;;;5082779;28;20050;-84
2023/09/24 10:50:16;;;;;;;3.92;2.03;;;25.00;53.70;;;;;;5087501;28;20024;-77
2023/09/24 10:52:58;;;;;;;1.75;1.65;;;25.10;53.20;;;;;;5095035;28;20024;-78
2023/09/24 10:55:30;;;;;;;2.25;2.05;;;25.10;53.20;;;;;;5076918;28;20024;-76
2023/09/24 10:58:03;;;;;;;3.67;2.03;;;25.10;53.00;;;;;;5094463;28;20050;-76
2023/09/24 11:00:30;;;;;;;2.25;2.05;;;25.10;52.90;;;;;;5064714;28;20094;-75
2023/09/24 11:03:07;;;;;;;2.50;1.92;;;25.10;52.90;;;;;;5074442;28;20109;-83
2023/09/24 11:05:41;;;;;;;2.60;2.03;;;25.10;52.40;;;;;;5056701;28;20021;-75
2023/09/24 11:08:08;;;;;;;2.75;1.77;;;25.10;52.50;;;;;;5074446;28;20047;-80
2023/09/24 11:10:34;;;;;;;4.65;1.98;;;25.10;52.60;;;;;;5073466;28;20064;-83
2023/09/24 11:13:02;;;;;;;2.97;1.65;;;25.20;52.50;;;;;;5055595;28;20450;-80
2023/09/24 11:15:38;;;;;;;4.75;1.95;;;25.10;52.20;;;;;;5056115;28;20041;-78
2023/09/24 11:18:05;;;;;;;3.53;1.83;;;25.20;52.10;;;;;;5056587;28;20374;-85
2023/09/24 11:20:32;;;;;;;3.47;1.85;;;25.20;52.20;;;;;;5055461;28;20072;-78
2023/09/24 11:23:01;;;;;;;4.78;2.63;;;25.20;52.00;;;;;;5054605;28;20028;-76
2023/09/24 11:25:28;;;;;;;3.88;1.88;;;25.20;51.60;;;;;;5065385;28;20527;-75
2023/09/24 11:27:56;;;;;;;2.28;1.80;;;25.30;51.60;;;;;;5055733;28;20032;-82
2023/09/24 11:30:24;;;;;;;2.17;1.50;;;25.30;51.60;;;;;;5055345;28;20020;-81
2023/09/24 11:32:51;;;;;;;3.70;1.90;;;25.40;51.50;;;;;;5055161;28;20489;-75
2023/09/24 11:35:22;;;;;;;3.30;1.80;;;25.50;51.40;;;;;;5072801;28;20029;-73
2023/09/24 11:37:50;;;;;;;2.67;1.70;;;25.50;51.20;;;;;;5054863;28;20028;-72
2023/09/24 11:40:30;;;;;;;1.65;1.40;;;25.60;51.10;;;;;;5075381;28;20048;-75
2023/09/24 11:43:08;;;;;;;3.70;1.55;;;25.70;51.00;;;;;;5065557;28;20096;-75
2023/09/24 11:45:42;;;;;;;1.85;1.60;;;25.70;50.80;;;;;;5079375;28;20068;-74
2023/09/24 11:48:14;;;;;;;2.70;1.90;;;25.70;50.90;;;;;;5082862;28;20038;-76
2023/09/24 11:50:49;;;;;;;1.98;1.42;;;25.70;50.80;;;;;;5081494;28;20040;-72
2023/09/24 11:53:15;;;;;;;2.40;1.70;;;25.80;50.90;;;;;;5081090;28;20028;-74
2023/09/24 11:55:41;;;;;;;2.10;1.80;;;25.80;50.80;;;;;;5082319;28;20033;-73
2023/09/24 11:58:08;;;;;;;3.83;1.70;;;25.80;50.70;;;;;;5064619;28;20035;-74
2023/09/24 12:00:38;;;;;;;5.43;1.80;;;25.80;50.70;;;;;;5054064;28;20045;-73
2023/09/24 12:03:06;;;;;;;3.83;1.50;;;25.80;50.50;;;;;;5053702;28;20121;-74
2023/09/24 12:05:32;;;;;;;3.60;1.63;;;25.80;50.40;;;;;;5050361;28;20025;-74
2023/09/24 12:07:58;;;;;;;3.28;1.50;;;25.90;50.50;;;;;;5060262;28;20048;-75
2023/09/24 12:10:24;;;;;;;1.50;1.40;;;25.90;50.50;;;;;;5055464;28;20028;-74
2023/09/24 12:12:50;;;;;;;2.20;1.55;;;25.90;50.50;;;;;;5076807;28;20024;-74
2023/09/24 12:15:17;;;;;;;1.85;1.25;;;25.90;50.50;;;;;;5055981;28;20063;-74
2023/09/24 12:17:45;;;;;;;5.40;1.98;;;25.90;50.50;;;;;;5070226;28;20036;-74
2023/09/24 12:20:11;;;;;;;1.58;1.40;;;25.90;50.50;;;;;;5071037;28;20399;-74
2023/09/24 12:22:40;;;;;;;2.67;1.60;;;25.90;50.40;;;;;;5062211;28;20529;-73
2023/09/24 12:25:07;;;;;;;2.92;1.52;;;25.90;50.40;;;;;;5073584;28;20043;-73
2023/09/24 12:27:32;;;;;;;2.53;1.50;;;25.90;50.40;;;;;;5071033;28;20043;-74
2023/09/24 12:29:58;;;;;;;3.45;1.50;;;25.90;50.30;;;;;;5071518;28;20036;-75
2023/09/24 12:32:24;;;;;;;1.50;1.40;;;26.00;50.30;;;;;;5071624;28;20041;-74
2023/09/24 12:34:50;;;;;;;3.45;1.60;;;26.00;50.30;;;;;;5054295;28;20025;-74
2023/09/24 12:37:16;;;;;;;1.83;1.65;;;26.00;50.30;;;;;;5072104;28;20070;-73
2023/09/24 12:39:41;;;;;;;2.75;1.63;;;26.00;50.30;;;;;;5071994;28;20037;-74
2023/09/24 12:42:07;;;;;;;2.95;1.52;;;26.00;50.20;;;;;;5072163;28;20035;-74
2023/09/24 12:44:33;;;;;;;1.75;1.50;;;26.00;50.20;;;;;;5072174;28;20045;-73
2023/09/24 12:46:59;;;;;;;2.65;1.65;;;26.10;50.10;;;;;;5071948;28;20044;-74
2023/09/24 12:49:25;;;;;;;5.25;1.77;;;26.10;50.00;;;;;;5072072;28;20033;-73
2023/09/24 12:51:50;;;;;;;2.13;1.75;;;26.10;49.90;;;;;;5072075;28;20051;-74
2023/09/24 12:54:16;;;;;;;4.03;1.65;;;26.20;49.90;;;;;;5054391;28;20033;-74
2023/09/24 12:56:42;;;;;;;2.80;1.70;;;26.30;49.90;;;;;;5075723;28;20031;-75
2023/09/24 12:59:07;;;;;;;3.63;1.40;;;26.30;49.90;;;;;;5072628;28;20036;-74
2023/09/24 13:01:33;;;;;;;3.47;1.67;;;26.30;49.90;;;;;;5068659;28;20041;-74
2023/09/24 13:03:58;;;;;;;4.05;1.70;;;26.30;49.80;;;;;;5052166;28;20029;-74
2023/09/24 13:06:26;;;;;;;2.55;1.83;;;26.40;49.80;;;;;;5067820;28;20037;-75
2023/09/24 13:08:52;;;;;;;2.67;1.58;;;26.50;49.80;;;;;;5039025;28;20363;-74
2023/09/24 13:11:19;;;;;;;4.32;1.70;;;26.50;49.60;;;;;;5071970;28;20055;-73
2023/09/24 13:13:45;;;;;;;2.97;1.40;;;26.60;49.60;;;;;;5071369;28;20103;-73
2023/09/24 13:16:11;;;;;;;2.13;1.73;;;26.70;49.50;;;;;;5072085;28;20151;-75
2023/09/24 13:18:37;;;;;;;2.70;1.50;;;26.80;49.40;;;;;;5053572;28;20021;-75
2023/09/24 13:21:03;;;;;;;3.20;1.58;;;26.90;49.30;;;;;;5053819;28;20394;-73
2023/09/24 13:23:28;;;;;;;2.15;1.65;;;27.00;49.20;;;;;;5053623;28;20025;-74
2023/09/24 13:25:54;;;;;;;2.55;1.70;;;27.10;49.10;;;;;;5071361;28;20055;-74
2023/09/24 13:28:21;;;;;;;1.60;1.50;;;27.20;48.90;;;;;;5071474;28;20432;-75
2023/09/24 13:30:47;;;;;;;2.70;1.52;;;27.40;48.80;;;;;;5070961;28;20040;-74
2023/09/24 13:33:13;;;;;;;1.63;1.42;;;27.50;48.70;;;;;;5071590;28;20028;-74
2023/09/24 13:35:40;;;;;;;3.38;1.58;;;27.60;48.50;;;;;;5053779;28;20052;-74
2023/09/24 13:38:06;;;;;;;3.15;1.50;;;27.80;48.50;;;;;;5071543;28;20482;-74
2023/09/24 13:40:40;;;;;;;2.65;1.60;;;28.00;48.30;;;;;;5071630;28;20036;-73
2023/09/24 13:43:06;;;;;;;;;;;28.40;48.30;;;;;;5036167;28;20041;-74
2023/09/24 13:45:32;;;;;;;1.95;1.73;;;28.80;48.10;;;;;;5062193;28;19915;-73
2023/09/24 13:47:59;;;;;;;3.30;1.48;;;29.40;48.10;;;;;;5073692;28;20374;-74
2023/09/24 13:50:25;;;;;;;3.65;1.50;;;30.00;48.50;;;;;;5075512;28;20082;-73
2023/09/24 13:52:51;;;;;;;2.17;1.63;;;30.70;47.70;;;;;;5075588;28;20025;-74
2023/09/24 13:55:16;;;;;;;1.60;1.42;;;31.30;47.40;;;;;;5075287;28;20111;-74
2023/09/24 13:57:42;;;;;;;1.65;1.55;;;31.90;47.20;;;;;;5074944;28;20032;-74
2023/09/24 14:00:08;;;;;;;1.40;1.30;;;32.40;46.90;;;;;;5075415;28;20131;-74
2023/09/24 14:02:34;;;;;;;2.00;1.40;;;32.90;46.60;;;;;;5075002;28;20024;-74
2023/09/24 14:04:59;;;;;;;2.00;1.45;;;33.20;46.20;;;;;;5074711;28;20124;-74
2023/09/24 14:07:25;;;;;;;2.08;1.65;;;33.50;46.10;;;;;;5075437;28;20454;-74
2023/09/24 14:12:35;;;;;;;2.72;1.52;;;33.70;45.70;;;;;;5075079;28;20086;-73
2023/09/24 14:15:03;;;;;;;1.67;1.33;;;33.60;45.50;;;;;;5074759;28;20037;-74
2023/09/24 14:17:29;;;;;;;1.52;1.40;;;33.60;45.30;;;;;;5074661;28;20024;-74
2023/09/24 14:19:55;;;;;;;2.08;1.60;;;33.60;45.10;;;;;;5074912;28;20117;-74
2023/09/24 14:22:22;;;;;;;1.38;1.20;;;33.70;44.70;;;;;;5074495;28;20545;-73
2023/09/24 14:24:47;;;;;;;2.25;1.48;;;33.80;44.40;;;;;;5056531;28;20059;-75
2023/09/24 14:27:13;;;;;;;1.38;1.27;;;34.00;44.00;;;;;;5071865;28;20056;-74
2023/09/24 14:29:39;;;;;;;2.90;1.40;;;34.20;43.80;;;;;;5056321;28;20130;-75
2023/09/24 14:32:04;;;;;;;1.40;1.30;;;34.40;43.60;;;;;;5056747;28;20028;-83
2023/09/24 14:34:30;;;;;;;1.98;1.40;;;34.60;43.40;;;;;;5056913;28;20029;-81
2023/09/24 14:36:56;;;;;;;2.33;1.60;;;34.70;43.10;;;;;;5074242;28;20079;-84
2023/09/24 14:39:21;;;;;;;1.55;1.42;;;34.60;43.00;;;;;;5073782;28;20059;-80
2023/09/24 14:41:47;;;;;;;3.25;1.52;;;34.40;43.00;;;;;;5074546;28;20104;-83
2023/09/24 14:44:13;;;;;;;1.60;1.38;;;34.20;43.00;;;;;;5073123;28;20112;-82
2023/09/24 14:46:38;;;;;;;1.90;1.70;;;33.90;42.90;;;;;;5073869;28;20032;-85
2023/09/24 14:49:04;;;;;;;3.15;1.70;;;33.60;42.80;;;;;;5074448;28;20075;-77
2023/09/24 14:51:33;;;;;;;1.63;1.52;;;33.40;42.90;;;;;;5067394;28;20116;-80
2023/09/24 14:53:59;;;;;;;2.00;1.55;;;33.10;42.90;;;;;;5062067;28;20397;-89
2023/09/24 14:56:26;;;;;;;3.20;1.67;;;32.80;43.00;;;;;;5040389;28;20028;-81
2023/09/24 14:58:52;;;;;;;2.67;2.22;;;32.40;42.90;;;;;;5073732;28;20028;-79
2023/09/24 15:01:18;;;;;;;5.40;2.50;;;32.10;43.10;;;;;;5073882;28;20410;-76
2023/09/24 15:03:44;;;;;;;7.22;3.80;;;31.90;43.30;;;;;;5073757;28;20060;-81
2023/09/24 15:06:10;;;;;;;9.57;6.30;;;31.60;43.30;;;;;;5056031;28;20486;-76
2023/09/24 15:08:36;;;;;;;10.43;5.53;;;31.40;43.50;;;;;;5070962;28;20040;-76
2023/09/24 15:11:06;;;;;;;11.52;5.05;;;31.20;43.60;;;;;;5048541;28;20039;-79
2023/09/24 15:13:34;;;;;;;6.85;4.13;;;30.90;43.60;;;;;;5069267;28;20106;-83
2023/09/24 15:16:02;;;;;;;6.93;4.32;;;30.60;43.70;;;;;;5072820;28;20047;-79
2023/09/24 15:18:27;;;;;;;4.97;3.88;;;30.30;43.90;;;;;;5073526;28;20041;-79
2023/09/24 15:20:53;;;;;;;6.88;3.10;;;30.00;44.00;;;;;;5055510;28;20540;-76
2023/09/24 15:23:20;;;;;;;4.30;3.05;;;29.70;44.10;;;;;;5073409;28;20054;-74
2023/09/24 15:25:46;;;;;;;4.82;2.90;;;29.50;44.30;;;;;;5073179;28;20028;-75
2023/09/24 15:28:13;;;;;;;3.80;2.60;;;29.20;44.40;;;;;;5072902;28;20065;-74
2023/09/24 15:30:42;;;;;;;4.30;2.88;;;29.00;44.60;;;;;;5073548;28;20106;-76
2023/09/24 15:33:08;;;;;;;145.73;116.10;;;28.80;44.70;;;;;;5055237;28;20028;-76
2023/09/24 15:35:35;;;;;;;7.65;4.68;;;28.60;44.80;;;;;;5072910;28;20059;-76
2023/09/24 15:38:05;;;;;;;5.68;2.95;;;28.40;44.90;;;;;;5073140;28;20123;-76
2023/09/24 15:40:31;;;;;;;6.88;3.00;;;28.30;45.10;;;;;;5072460;28;20532;-76
2023/09/24 15:42:56;;;;;;;4.47;3.20;;;28.10;45.20;;;;;;5072735;28;20020;-76
2023/09/24 15:45:22;;;;;;;4.95;2.63;;;27.90;45.20;;;;;;5073105;28;20024;-75
2023/09/24 15:47:48;;;;;;;5.05;2.88;;;27.80;45.40;;;;;;5073150;28;20028;-76
2023/09/24 15:50:13;;;;;;;6.78;3.42;;;27.60;45.40;;;;;;5072541;28;20028;-76
2023/09/24 15:52:40;;;;;;;7.43;3.90;;;27.50;45.50;;;;;;5072539;28;20103;-75
2023/09/24 15:55:07;;;;;;;4.65;3.65;;;27.40;45.60;;;;;;5072703;28;20060;-75
2023/09/24 15:57:34;;;;;;;7.93;4.07;;;27.30;45.80;;;;;;5054682;28;20024;-74
2023/09/24 15:59:59;;;;;;;8.02;5.97;;;27.10;45.80;;;;;;5072320;28;20033;-74
2023/09/24 16:02:25;;;;;;;10.30;8.45;;;27.00;45.90;;;;;;5073056;28;20036;-74
2023/09/24 16:04:51;;;;;;;12.10;7.63;;;26.90;46.10;;;;;;5071868;28;20025;-78
2023/09/24 16:07:18;;;;;;;9.80;6.32;;;26.80;46.20;;;;;;5072350;28;20035;-76
2023/09/24 16:09:47;;;;;;;8.63;5.75;;;26.70;46.40;;;;;;5058513;28;20028;-75
2023/09/24 16:12:13;;;;;;;8.90;6.50;;;26.60;46.40;;;;;;5060153;28;20110;-73
2023/09/24 16:14:39;;;;;;;9.30;6.00;;;26.40;46.50;;;;;;5071833;28;20059;-74
2023/09/24 16:17:04;;;;;;;8.90;5.65;;;26.40;46.80;;;;;;5071998;28;20028;-74
2023/09/24 16:19:30;;;;;;;9.43;6.03;;;26.30;46.90;;;;;;5071953;28;20031;-75
2023/09/24 16:21:56;;;;;;;9.35;5.80;;;26.20;46.90;;;;;;5072188;28;20134;-78
2023/09/24 16:24:21;;;;;;;8.30;5.32;;;26.10;47.10;;;;;;5072389;28;20021;-75
2023/09/24 16:26:48;;;;;;;9.65;5.88;;;26.10;47.20;;;;;;5072778;28;20029;-76
2023/09/24 16:29:16;;;;;;;7.72;5.60;;;26.00;47.40;;;;;;5071979;28;20430;-76
2023/09/24 16:31:43;;;;;;;8.18;5.20;;;25.90;47.50;;;;;;5071879;28;20577;-76
2023/09/24 16:34:08;;;;;;;9.07;5.72;;;25.80;47.60;;;;;;5072461;28;20024;-78
2023/09/24 16:36:34;;;;;;;8.77;5.43;;;25.80;47.80;;;;;;5072544;28;20486;-73
2023/09/24 16:39:00;;;;;;;14.98;7.05;;;25.70;47.90;;;;;;5054056;28;20051;-71
2023/09/24 16:41:26;;;;;;;12.65;6.25;;;25.70;48.10;;;;;;5071367;28;20067;-76
2023/09/24 16:43:52;;;;;;;16.42;9.25;;;25.60;48.40;;;;;;5065467;28;20053;-76
2023/09/24 16:46:19;;;;;;;10.63;6.93;;;25.60;48.60;;;;;;5064011;28;20083;-75
2023/09/24 16:48:45;;;;;;;20.08;11.65;;;25.60;48.90;;;;;;5060789;28;20534;-74
2023/09/24 16:51:10;;;;;;;9.85;5.82;;;25.50;49.00;;;;;;5072047;28;20047;-75
2023/09/24 16:53:36;;;;;;;7.68;5.53;;;25.50;49.30;;;;;;5053963;28;20025;-74
2023/09/24 16:56:02;;;;;;;11.60;6.10;;;25.50;49.50;;;;;;5072101;28;20040;-72
2023/09/24 16:58:28;;;;;;;10.98;6.30;;;25.50;49.60;;;;;;5071715;28;20037;-72
2023/09/24 17:00:53;;;;;;;8.50;5.72;;;25.40;49.90;;;;;;5071422;28;20094;-73
2023/09/24 17:03:19;;;;;;;10.70;5.90;;;25.40;50.00;;;;;;5054238;28;20031;-76
2023/09/24 17:05:44;;;;;;;9.25;5.43;;;25.40;50.10;;;;;;5057976;28;20098;-78
2023/09/24 17:08:10;;;;;;;9.65;5.45;;;25.40;50.30;;;;;;5080488;28;20078;-75
2023/09/24 17:10:37;;;;;;;8.73;5.70;;;25.40;50.40;;;;;;5081898;28;20043;-77
2023/09/24 17:13:03;;;;;;;8.52;5.70;;;25.30;50.40;;;;;;5059737;28;20439;-72
2023/09/24 17:15:30;;;;;;;11.10;6.25;;;25.30;50.60;;;;;;5067893;28;20029;-72
2023/09/24 17:17:59;;;;;;;9.80;6.18;;;25.30;50.60;;;;;;5076776;28;20021;-74
2023/09/24 17:20:26;;;;;;;10.65;6.75;;;25.20;50.60;;;;;;5064670;28;20078;-75
2023/09/24 17:22:52;;;;;;;10.65;6.75;;;25.20;50.80;;;;;;5056326;28;20052;-73
2023/09/24 17:25:18;;;;;;;10.30;6.35;;;25.20;50.80;;;;;;5058232;28;20025;-75
2023/09/24 17:27:44;;;;;;;25.90;19.55;;;25.10;50.90;;;;;;5076200;28;20481;-77
2023/09/24 17:30:11;;;;;;;12.77;7.57;;;25.10;51.00;;;;;;5075339;28;20478;-83
2023/09/24 17:32:37;;;;;;;15.43;9.27;;;25.10;50.90;;;;;;5075394;28;20052;-86
2023/09/24 17:35:06;;;;;;;13.38;9.40;;;25.10;50.90;;;;;;5057760;28;20075;-87
2023/09/24 17:37:32;;;;;;;15.45;9.13;;;25.00;51.00;;;;;;5076029;28;20060;-84
2023/09/24 17:39:58;;;;;;;13.18;7.88;;;25.00;51.00;;;;;;5057733;28;20428;-85
2023/09/24 17:42:23;;;;;;;13.60;7.90;;;25.00;51.10;;;;;;5075167;28;20028;-82
2023/09/24 17:44:49;;;;;;;15.35;8.57;;;24.90;51.20;;;;;;5075823;28;20053;-81
2023/09/24 17:47:15;;;;;;;15.07;9.55;;;24.90;51.30;;;;;;5077526;28;20079;-82
2023/09/24 17:49:40;;;;;;;13.63;8.65;;;24.80;51.40;;;;;;5084811;28;20374;-81
2023/09/24 17:52:06;;;;;;;12.65;7.68;;;24.80;51.50;;;;;;5068047;28;20363;-81
2023/09/24 17:54:33;;;;;;;13.48;8.20;;;24.70;51.50;;;;;;5083877;28;20028;-82
2023/09/24 17:56:59;;;;;;;12.93;8.27;;;24.70;51.70;;;;;;5084077;28;20377;-80
2023/09/24 17:59:25;;;;;;;13.80;7.97;;;24.70;51.80;;;;;;5063801;28;20394;-82
2023/09/24 18:01:53;;;;;;;12.10;7.40;;;24.60;51.80;;;;;;5066323;28;20048;-83
2023/09/24 18:04:18;;;;;;;14.05;9.27;;;24.60;52.60;;;;;;5072501;28;20024;-83
2023/09/24 18:06:44;;;;;;;15.32;9.90;;;24.60;52.00;;;;;;5081634;28;20083;-83
2023/09/24 18:09:10;;;;;;;20.30;9.98;;;24.50;52.10;;;;;;5079359;28;20029;-84
2023/09/24 18:11:35;;;;;;;19.00;11.05;;;24.50;52.20;;;;;;5079707;28;20039;-73
2023/09/24 18:14:01;;;;;;;17.92;10.23;;;24.50;52.30;;;;;;5077071;28;20119;-75
2023/09/24 18:16:27;;;;;;;17.95;10.48;;;24.40;52.40;;;;;;5079317;28;20028;-76
2023/09/24 18:18:52;;;;;;;21.25;10.50;;;24.40;52.30;;;;;;5078207;28;20104;-75
2023/09/24 18:21:18;;;;;;;18.85;10.90;;;24.40;52.30;;;;;;5075185;28;20043;-75
2023/09/24 18:23:48;;;;;;;19.75;11.18;;;24.40;52.30;;;;;;5069840;28;20449;-74
2023/09/24 18:26:18;;;;;;;15.98;10.73;;;24.30;52.90;;;;;;5075084;28;20024;-75
2023/09/24 18:28:44;;;;;;;16.25;10.20;;;24.20;52.40;;;;;;5075033;28;20048;-74
2023/09/24 18:31:11;;;;;;;17.42;12.00;;;24.20;52.50;;;;;;5056106;28;20039;-74
2023/09/24 18:33:37;;;;;;;18.48;12.90;;;24.10;52.60;;;;;;5059021;28;20032;-75
2023/09/24 18:36:03;;;;;;;17.58;11.48;;;24.10;53.30;;;;;;5085303;28;20028;-76
2023/09/24 18:38:29;;;;;;;15.40;10.20;;;24.00;52.70;;;;;;5085390;28;20028;-74
2023/09/24 18:40:56;;;;;;;13.20;9.45;;;24.00;52.90;;;;;;5083227;28;20062;-75
2023/09/24 18:43:26;;;;;;;15.30;9.88;;;23.90;52.90;;;;;;5083777;28;20067;-75
2023/09/24 18:45:53;;;;;;;13.43;9.23;;;23.90;53.00;;;;;;5083361;28;20036;-74
2023/09/24 18:48:22;;;;;;;14.82;9.43;;;23.90;53.20;;;;;;5066261;28;20028;-75
2023/09/24 18:50:51;;;;;;;13.98;9.70;;;23.80;53.20;;;;;;5083391;28;20098;-77
2023/09/24 18:53:16;;;;;;;15.52;11.15;;;23.80;53.30;;;;;;5083429;28;20458;-77
2023/09/24 18:55:43;;;;;;;16.13;10.55;;;23.70;53.30;;;;;;5082904;28;20035;-75
2023/09/24 18:58:09;;;;;;;14.23;9.75;;;23.70;53.40;;;;;;5084743;28;20035;-76
2023/09/24 19:00:48;;;;;;;13.05;8.10;;;23.70;53.60;;;;;;5083685;28;20032;-78
2023/09/24 19:03:15;;;;;;;14.35;8.02;;;23.60;53.60;;;;;;5063578;28;20037;-76
2023/09/24 19:05:40;;;;;;;8.00;5.95;;;23.60;53.80;;;;;;5074171;28;20032;-77
2023/09/24 19:08:06;;;;;;;10.75;6.32;;;23.60;53.90;;;;;;5073480;28;20066;-78
2023/09/24 19:10:31;;;;;;;8.70;6.07;;;23.60;54.10;;;;;;5074350;28;20032;-77
2023/09/24 19:12:57;;;;;;;10.05;6.45;;;23.50;54.20;;;;;;5074043;28;20064;-77
2023/09/24 19:15:23;;;;;;;8.70;6.38;;;23.50;54.30;;;;;;5074185;28;20025;-77
2023/09/24 19:17:48;;;;;;;9.57;6.72;;;23.50;54.40;;;;;;5073971;28;20032;-77
2023/09/24 19:20:14;;;;;;;9.95;6.13;;;23.50;54.40;;;;;;5055312;28;20036;-77
2023/09/24 19:22:40;;;;;;;17.00;10.07;;;23.50;54.50;;;;;;5073780;28;20020;-76
2023/09/24 19:25:06;;;;;;;22.48;11.48;;;23.50;54.70;;;;;;5055944;28;20526;-78
2023/09/24 19:27:32;;;;;;;22.55;13.32;;;23.50;54.70;;;;;;5056077;28;20021;-79
2023/09/24 19:29:58;;;;;;;26.98;14.65;;;23.50;54.80;;;;;;5073904;28;20505;-76
2023/09/24 19:32:25;;;;;;;24.27;12.23;;;23.40;54.80;;;;;;5073115;28;20052;-77
2023/09/24 19:34:51;;;;;;;20.77;12.35;;;23.40;55.00;;;;;;5073176;28;20036;-84
2023/09/24 19:37:17;;;;;;;18.02;11.35;;;23.40;55.20;;;;;;5073484;28;20118;-78
2023/09/24 19:39:42;;;;;;;21.75;11.40;;;23.40;55.30;;;;;;5074005;28;20099;-79
2023/09/24 19:42:08;;;;;;;18.52;10.30;;;23.40;55.50;;;;;;5073942;28;20425;-79
2023/09/24 19:44:34;;;;;;;17.58;9.73;;;23.40;55.60;;;;;;5072850;28;20398;-78
2023/09/24 19:46:59;;;;;;;16.58;9.25;;;23.40;55.80;;;;;;5079107;28;20028;-78
2023/09/24 19:49:27;;;;;;;15.98;9.38;;;23.40;56.00;;;;;;5072801;28;20082;-77
2023/09/24 19:51:53;;;;;;;15.77;8.52;;;23.40;56.10;;;;;;5093430;28;20058;-77
2023/09/24 19:54:19;;;;;;;14.93;8.48;;;23.40;56.30;;;;;;5056368;28;20041;-77
2023/09/24 19:56:45;;;;;;;15.48;8.27;;;23.30;56.30;;;;;;5054657;28;20031;-77
2023/09/24 19:59:10;;;;;;;14.05;8.05;;;23.30;56.40;;;;;;5055468;28;20150;-77
2023/09/24 20:01:36;;;;;;;14.82;8.43;;;23.30;56.50;;;;;;5073452;28;20042;-78
2023/09/24 20:04:02;;;;;;;12.00;7.45;;;23.30;56.60;;;;;;5073628;28;20458;-78
2023/09/24 20:06:27;;;;;;;17.73;12.93;;;23.30;56.80;;;;;;5054515;28;20033;-78
2023/09/24 20:08:58;;;;;;;14.13;8.75;;;23.30;56.90;;;;;;5072712;28;20025;-78
2023/09/24 20:11:24;;;;;;;13.55;7.75;;;23.30;57.00;;;;;;5073462;28;20383;-78
2023/09/24 20:13:56;;;;;;;15.52;8.38;;;23.30;57.00;;;;;;5055259;28;20032;-79
2023/09/24 20:16:22;;;;;;;13.63;8.32;;;23.20;57.20;;;;;;5073146;28;20400;-78
2023/09/24 20:18:47;;;;;;;15.48;8.70;;;23.10;57.20;;;;;;5072612;28;20029;-78
2023/09/24 20:21:13;;;;;;;15.55;7.43;;;23.10;57.40;;;;;;5054662;28;20028;-79
2023/09/24 20:23:39;;;;;;;13.00;7.07;;;23.10;57.60;;;;;;5072753;28;20059;-77
2023/09/24 20:26:05;;;;;;;12.60;7.15;;;23.10;57.80;;;;;;5055158;28;20032;-78
2023/09/24 20:28:31;;;;;;;10.70;6.68;;;23.10;58.00;;;;;;5054754;28;20153;-78
2023/09/24 20:30:58;;;;;;;11.38;6.70;;;23.00;58.10;;;;;;5072600;28;20024;-78
2023/09/24 20:33:25;;;;;;;10.35;6.70;;;23.00;58.30;;;;;;5054021;28;20040;-80
2023/09/24 20:35:50;;;;;;;10.10;6.43;;;23.00;58.40;;;;;;5072712;28;20486;-78
2023/09/24 20:38:16;;;;;;;9.50;6.28;;;23.00;58.60;;;;;;5072973;28;20106;-78
2023/09/24 20:40:42;;;;;;;10.18;6.65;;;23.00;58.70;;;;;;5072836;28;20070;-79
2023/09/24 20:43:09;;;;;;;11.13;6.53;;;23.00;58.80;;;;;;5072457;28;20048;-78
2023/09/24 20:45:36;;;;;;;8.95;6.40;;;22.90;58.80;;;;;;5072693;28;20056;-78
2023/09/24 20:48:04;;;;;;;10.35;6.15;;;22.90;59.00;;;;;;5054368;28;20033;-78
2023/09/24 20:50:30;;;;;;;9.55;6.13;;;22.90;59.00;;;;;;5072792;28;20032;-78
2023/09/24 20:52:56;;;;;;;10.70;6.45;;;22.90;59.00;;;;;;5072996;28;20028;-78
2023/09/24 20:55:22;;;;;;;9.00;6.18;;;22.80;59.00;;;;;;5054548;28;20028;-79
2023/09/24 20:57:48;;;;;;;10.63;6.10;;;22.80;59.10;;;;;;5078307;28;20073;-77
2023/09/24 21:00:20;;;;;;;10.20;6.10;;;22.70;59.10;;;;;;5060885;28;20098;-79
2023/09/24 21:02:46;;;;;;;9.40;5.95;;;22.80;59.90;;;;;;5072928;28;20467;-79
2023/09/24 21:05:12;;;;;;;9.30;5.70;;;22.80;59.40;;;;;;5078909;28;20047;-78
2023/09/24 21:07:38;;;;;;;9.88;6.03;;;22.80;59.50;;;;;;5078168;28;20078;-78
2023/09/24 21:10:05;;;;;;;9.43;5.20;;;22.80;59.50;;;;;;5077542;28;20123;-78
2023/09/24 21:12:39;;;;;;;8.82;5.80;;;22.70;59.50;;;;;;5079278;28;20028;-78
2023/09/24 21:15:05;;;;;;;8.60;5.32;;;22.70;59.60;;;;;;5077226;28;20024;-79
2023/09/24 21:17:32;;;;;;;7.88;5.15;;;22.70;60.20;;;;;;5079100;28;20154;-78
2023/09/24 21:19:58;;;;;;;8.48;5.40;;;22.70;59.70;;;;;;5061166;28;20119;-78
2023/09/24 21:22:23;;;;;;;8.18;5.60;;;22.70;59.70;;;;;;5061662;28;20463;-79
2023/09/24 21:24:53;;;;;;;8.85;5.30;;;22.70;59.70;;;;;;5079289;28;20371;-79
2023/09/24 21:27:20;;;;;;;7.78;5.10;;;22.70;59.80;;;;;;5078885;28;20050;-78
2023/09/24 21:29:54;;;;;;;7.65;5.25;;;22.70;59.90;;;;;;5060606;28;20453;-78